sensor_id;sensor_type;location;lat;lon;timestamp;pressure;altitude;pressure_sealevel;temperature;humidity
35892;BME280;21993;42.672;23.296;2023-02-12T00:01:16;95655.69;;;3.94;38.38
35892;BME280;21993;42.672;23.296;2023-02-12T00:03:41;95661.59;;;3.98;39.02
35892;BME280;21993;42.672;23.296;2023-02-12T00:06:08;95662.56;;;3.95;39.00
35892;BME280;21993;42.672;23.296;2023-02-12T00:08:34;95655.69;;;3.94;38.96
35892;BME280;21993;42.672;23.296;2023-02-12T00:11:09;95658.72;;;3.85;38.58
35892;BME280;21993;42.672;23.296;2023-02-12T00:13:36;95655.03;;;3.72;39.42
35892;BME280;21993;42.672;23.296;2023-02-12T00:16:10;95676.72;;;3.71;38.81
35892;BME280;21993;42.672;23.296;2023-02-12T00:18:35;95657.28;;;3.79;38.46
35892;BME280;21993;42.672;23.296;2023-02-12T00:21:01;95664.84;;;3.65;39.25
35892;BME280;21993;42.672;23.296;2023-02-12T00:23:27;95666.19;;;3.74;38.80
35892;BME280;21993;42.672;23.296;2023-02-12T00:25:53;95659.31;;;3.73;39.45
35892;BME280;21993;42.672;23.296;2023-02-12T00:28:18;95659.22;;;3.74;39.22
35892;BME280;21993;42.672;23.296;2023-02-12T00:30:44;95661.81;;;3.93;38.47
35892;BME280;21993;42.672;23.296;2023-02-12T00:33:09;95659.31;;;4.09;38.25
35892;BME280;21993;42.672;23.296;2023-02-12T00:35:34;95659.13;;;3.94;38.04
35892;BME280;21993;42.672;23.296;2023-02-12T00:38:00;95653.69;;;3.82;38.77
35892;BME280;21993;42.672;23.296;2023-02-12T00:40:25;95648.53;;;3.99;39.15
35892;BME280;21993;42.672;23.296;2023-02-12T00:42:51;95637.38;;;3.97;39.21
35892;BME280;21993;42.672;23.296;2023-02-12T00:45:17;95633.38;;;3.90;38.41
35892;BME280;21993;42.672;23.296;2023-02-12T00:47:42;95644.19;;;4.00;38.67
35892;BME280;21993;42.672;23.296;2023-02-12T00:50:08;95628.78;;;3.95;38.39
35892;BME280;21993;42.672;23.296;2023-02-12T00:52:33;95624.06;;;4.03;39.22
35892;BME280;21993;42.672;23.296;2023-02-12T00:54:59;95622.13;;;3.72;38.54
35892;BME280;21993;42.672;23.296;2023-02-12T00:57:24;95617.09;;;3.86;38.87
35892;BME280;21993;42.672;23.296;2023-02-12T00:59:50;95610.84;;;3.90;38.79
35892;BME280;21993;42.672;23.296;2023-02-12T01:02:15;95616.34;;;3.84;38.66
35892;BME280;21993;42.672;23.296;2023-02-12T01:04:42;95606.09;;;3.81;39.23
35892;BME280;21993;42.672;23.296;2023-02-12T01:07:08;95605.44;;;3.95;39.18
35892;BME280;21993;42.672;23.296;2023-02-12T01:09:34;95596.66;;;3.98;38.99
35892;BME280;21993;42.672;23.296;2023-02-12T01:11:59;95608.22;;;3.73;38.71
35892;BME280;21993;42.672;23.296;2023-02-12T01:14:24;95613.34;;;3.75;38.51
35892;BME280;21993;42.672;23.296;2023-02-12T01:16:50;95610.22;;;3.85;39.16
35892;BME280;21993;42.672;23.296;2023-02-12T01:19:15;95614.50;;;3.86;39.38
35892;BME280;21993;42.672;23.296;2023-02-12T01:21:41;95621.28;;;3.72;38.67
35892;BME280;21993;42.672;23.296;2023-02-12T01:24:06;95613.06;;;3.81;39.12
35892;BME280;21993;42.672;23.296;2023-02-12T01:26:32;95625.88;;;3.84;39.22
35892;BME280;21993;42.672;23.296;2023-02-12T01:29:01;95623.72;;;3.75;39.78
35892;BME280;21993;42.672;23.296;2023-02-12T01:31:30;95629.59;;;3.78;39.80
35892;BME280;21993;42.672;23.296;2023-02-12T01:33:57;95620.31;;;3.91;39.19
35892;BME280;21993;42.672;23.296;2023-02-12T01:36:23;95625.38;;;3.94;39.23
35892;BME280;21993;42.672;23.296;2023-02-12T01:38:49;95621.44;;;4.05;39.36
35892;BME280;21993;42.672;23.296;2023-02-12T01:41:18;95621.34;;;4.06;39.52
35892;BME280;21993;42.672;23.296;2023-02-12T01:43:44;95613.66;;;4.22;39.09
35892;BME280;21993;42.672;23.296;2023-02-12T01:46:13;95616.09;;;4.08;39.53
35892;BME280;21993;42.672;23.296;2023-02-12T01:48:42;95604.97;;;3.87;40.29
35892;BME280;21993;42.672;23.296;2023-02-12T01:51:14;95597.91;;;4.08;39.67
35892;BME280;21993;42.672;23.296;2023-02-12T01:53:44;95594.75;;;4.01;40.22
35892;BME280;21993;42.672;23.296;2023-02-12T01:56:11;95598.56;;;4.11;40.40
35892;BME280;21993;42.672;23.296;2023-02-12T01:58:40;95600.34;;;4.11;40.39
35892;BME280;21993;42.672;23.296;2023-02-12T02:01:10;95595.38;;;4.06;40.27
35892;BME280;21993;42.672;23.296;2023-02-12T02:03:38;95607.91;;;3.98;40.56
35892;BME280;21993;42.672;23.296;2023-02-12T02:06:11;95602.22;;;3.90;40.42
35892;BME280;21993;42.672;23.296;2023-02-12T02:08:38;95610.50;;;3.98;40.25
35892;BME280;21993;42.672;23.296;2023-02-12T02:11:03;95603.72;;;4.13;40.26
35892;BME280;21993;42.672;23.296;2023-02-12T02:13:49;95616.72;;;3.94;40.32
35892;BME280;21993;42.672;23.296;2023-02-12T02:16:34;95601.38;;;3.89;40.98
35892;BME280;21993;42.672;23.296;2023-02-12T02:22:01;95604.53;;;3.96;40.62
35892;BME280;21993;42.672;23.296;2023-02-12T02:25:00;95606.88;;;3.83;41.42
35892;BME280;21993;42.672;23.296;2023-02-12T02:38:33;95587.63;;;3.87;41.83
35892;BME280;21993;42.672;23.296;2023-02-12T02:41:08;95593.41;;;3.75;42.14
35892;BME280;21993;42.672;23.296;2023-02-12T02:43:41;95596.91;;;3.74;42.25
35892;BME280;21993;42.672;23.296;2023-02-12T02:46:17;95602.19;;;3.73;41.97
35892;BME280;21993;42.672;23.296;2023-02-12T02:48:48;95603.34;;;3.84;42.50
35892;BME280;21993;42.672;23.296;2023-02-12T02:51:18;95603.06;;;3.54;42.76
35892;BME280;21993;42.672;23.296;2023-02-12T02:53:48;95604.81;;;3.54;42.60
35892;BME280;21993;42.672;23.296;2023-02-12T02:56:18;95606.66;;;3.69;43.12
35892;BME280;21993;42.672;23.296;2023-02-12T02:58:54;95609.22;;;3.52;42.93
35892;BME280;21993;42.672;23.296;2023-02-12T03:01:35;95599.38;;;3.58;43.12
35892;BME280;21993;42.672;23.296;2023-02-12T03:04:05;95604.16;;;3.67;43.80
35892;BME280;21993;42.672;23.296;2023-02-12T03:06:37;95609.38;;;3.85;42.61
35892;BME280;21993;42.672;23.296;2023-02-12T03:09:12;95609.25;;;3.88;42.46
35892;BME280;21993;42.672;23.296;2023-02-12T03:11:39;95615.75;;;3.97;42.69
35892;BME280;21993;42.672;23.296;2023-02-12T03:14:08;95612.63;;;4.07;43.00
35892;BME280;21993;42.672;23.296;2023-02-12T03:19:19;95608.13;;;4.11;42.84
35892;BME280;21993;42.672;23.296;2023-02-12T03:21:49;95604.56;;;4.13;42.59
35892;BME280;21993;42.672;23.296;2023-02-12T03:24:39;95603.56;;;4.16;42.98
35892;BME280;21993;42.672;23.296;2023-02-12T03:27:27;95596.69;;;4.32;42.50
35892;BME280;21993;42.672;23.296;2023-02-12T03:29:53;95597.22;;;4.21;42.69
35892;BME280;21993;42.672;23.296;2023-02-12T03:35:09;95590.66;;;4.32;42.92
35892;BME280;21993;42.672;23.296;2023-02-12T03:37:43;95594.09;;;4.32;43.38
35892;BME280;21993;42.672;23.296;2023-02-12T03:40:16;95591.34;;;4.35;43.47
35892;BME280;21993;42.672;23.296;2023-02-12T03:42:58;95598.28;;;4.35;43.04
35892;BME280;21993;42.672;23.296;2023-02-12T03:48:45;95598.84;;;4.41;43.66
35892;BME280;21993;42.672;23.296;2023-02-12T03:51:19;95596.22;;;4.41;43.59
35892;BME280;21993;42.672;23.296;2023-02-12T03:53:45;95587.44;;;4.44;43.40
35892;BME280;21993;42.672;23.296;2023-02-12T03:56:16;95599.84;;;4.39;42.97
35892;BME280;21993;42.672;23.296;2023-02-12T03:58:44;95602.72;;;4.33;43.27
35892;BME280;21993;42.672;23.296;2023-02-12T04:01:10;95598.81;;;4.24;43.04
35892;BME280;21993;42.672;23.296;2023-02-12T04:03:37;95597.22;;;4.21;43.16
35892;BME280;21993;42.672;23.296;2023-02-12T04:06:03;95592.09;;;4.20;44.39
35892;BME280;21993;42.672;23.296;2023-02-12T04:08:30;95584.69;;;4.12;43.96
35892;BME280;21993;42.672;23.296;2023-02-12T04:11:20;95586.13;;;4.18;44.21
35892;BME280;21993;42.672;23.296;2023-02-12T04:16:25;95593.25;;;4.14;43.86
35892;BME280;21993;42.672;23.296;2023-02-12T04:18:54;95602.47;;;4.20;44.16
35892;BME280;21993;42.672;23.296;2023-02-12T04:25:09;95608.97;;;4.11;44.74
35892;BME280;21993;42.672;23.296;2023-02-12T04:32:32;95604.09;;;4.05;45.56
35892;BME280;21993;42.672;23.296;2023-02-12T04:35:10;95597.97;;;4.06;44.64
35892;BME280;21993;42.672;23.296;2023-02-12T04:37:51;95596.38;;;4.04;45.21
35892;BME280;21993;42.672;23.296;2023-02-12T04:40:20;95614.56;;;4.04;45.51
35892;BME280;21993;42.672;23.296;2023-02-12T04:42:48;95604.28;;;4.01;44.47
35892;BME280;21993;42.672;23.296;2023-02-12T04:45:34;95616.06;;;3.90;45.97
35892;BME280;21993;42.672;23.296;2023-02-12T04:48:01;95610.78;;;3.92;46.04
35892;BME280;21993;42.672;23.296;2023-02-12T04:50:39;95620.81;;;4.00;45.43
35892;BME280;21993;42.672;23.296;2023-02-12T04:53:05;95630.16;;;4.04;44.94
35892;BME280;21993;42.672;23.296;2023-02-12T04:55:30;95632.66;;;4.05;45.22
35892;BME280;21993;42.672;23.296;2023-02-12T04:57:56;95634.25;;;4.08;44.77
35892;BME280;21993;42.672;23.296;2023-02-12T05:00:21;95633.44;;;4.07;45.34
35892;BME280;21993;42.672;23.296;2023-02-12T05:02:47;95629.75;;;4.11;45.21
35892;BME280;21993;42.672;23.296;2023-02-12T05:05:12;95634.06;;;4.12;44.93
35892;BME280;21993;42.672;23.296;2023-02-12T05:07:37;95636.09;;;4.06;46.10
35892;BME280;21993;42.672;23.296;2023-02-12T05:10:03;95639.66;;;4.03;45.65
35892;BME280;21993;42.672;23.296;2023-02-12T05:12:29;95638.69;;;4.06;45.79
35892;BME280;21993;42.672;23.296;2023-02-12T05:14:54;95647.34;;;4.06;45.62
35892;BME280;21993;42.672;23.296;2023-02-12T05:17:23;95643.13;;;3.85;45.31
35892;BME280;21993;42.672;23.296;2023-02-12T05:19:49;95655.53;;;3.80;45.74
35892;BME280;21993;42.672;23.296;2023-02-12T05:22:15;95654.31;;;3.68;46.03
35892;BME280;21993;42.672;23.296;2023-02-12T05:24:40;95658.31;;;3.75;47.41
35892;BME280;21993;42.672;23.296;2023-02-12T05:27:06;95659.66;;;3.65;47.51
35892;BME280;21993;42.672;23.296;2023-02-12T05:29:33;95662.31;;;3.63;47.57
35892;BME280;21993;42.672;23.296;2023-02-12T05:31:59;95670.47;;;3.75;46.86
35892;BME280;21993;42.672;23.296;2023-02-12T05:34:24;95665.88;;;3.42;47.28
35892;BME280;21993;42.672;23.296;2023-02-12T05:36:49;95661.59;;;3.41;48.10
35892;BME280;21993;42.672;23.296;2023-02-12T05:39:15;95670.50;;;3.35;48.07
35892;BME280;21993;42.672;23.296;2023-02-12T05:41:40;95672.22;;;3.55;48.36
35892;BME280;21993;42.672;23.296;2023-02-12T05:44:06;95680.09;;;3.54;48.62
35892;BME280;21993;42.672;23.296;2023-02-12T05:46:32;95686.44;;;3.47;49.06
35892;BME280;21993;42.672;23.296;2023-02-12T05:48:57;95684.28;;;3.37;49.73
35892;BME280;21993;42.672;23.296;2023-02-12T05:51:25;95687.13;;;3.31;50.45
35892;BME280;21993;42.672;23.296;2023-02-12T05:53:54;95674.84;;;3.35;50.73
35892;BME280;21993;42.672;23.296;2023-02-12T05:56:23;95679.34;;;3.31;50.82
35892;BME280;21993;42.672;23.296;2023-02-12T05:58:57;95677.94;;;3.24;50.67
35892;BME280;21993;42.672;23.296;2023-02-12T06:01:31;95685.22;;;3.35;51.03
35892;BME280;21993;42.672;23.296;2023-02-12T06:03:59;95690.00;;;3.44;50.97
35892;BME280;21993;42.672;23.296;2023-02-12T06:06:26;95688.03;;;3.30;51.01
35892;BME280;21993;42.672;23.296;2023-02-12T06:08:52;95688.88;;;3.31;51.92
35892;BME280;21993;42.672;23.296;2023-02-12T06:11:17;95688.81;;;3.32;51.87
35892;BME280;21993;42.672;23.296;2023-02-12T06:13:44;95687.19;;;3.30;52.88
35892;BME280;21993;42.672;23.296;2023-02-12T06:16:21;95688.38;;;3.23;53.62
35892;BME280;21993;42.672;23.296;2023-02-12T06:18:47;95691.03;;;3.21;54.12
35892;BME280;21993;42.672;23.296;2023-02-12T06:21:13;95704.19;;;3.17;54.53
35892;BME280;21993;42.672;23.296;2023-02-12T06:23:39;95699.41;;;3.07;55.37
35892;BME280;21993;42.672;23.296;2023-02-12T06:26:04;95698.25;;;3.15;55.38
35892;BME280;21993;42.672;23.296;2023-02-12T06:28:30;95695.81;;;3.30;55.47
35892;BME280;21993;42.672;23.296;2023-02-12T06:30:55;95698.84;;;3.40;56.37
35892;BME280;21993;42.672;23.296;2023-02-12T06:33:20;95700.00;;;3.53;56.93
35892;BME280;21993;42.672;23.296;2023-02-12T06:35:46;95701.09;;;3.29;58.48
35892;BME280;21993;42.672;23.296;2023-02-12T06:38:12;95703.13;;;3.41;58.69
35892;BME280;21993;42.672;23.296;2023-02-12T06:40:37;95696.75;;;3.48;58.40
35892;BME280;21993;42.672;23.296;2023-02-12T06:43:03;95705.56;;;3.44;59.77
35892;BME280;21993;42.672;23.296;2023-02-12T06:45:28;95707.06;;;3.50;59.17
35892;BME280;21993;42.672;23.296;2023-02-12T06:47:54;95708.31;;;3.41;58.97
35892;BME280;21993;42.672;23.296;2023-02-12T06:50:19;95708.03;;;3.28;59.40
35892;BME280;21993;42.672;23.296;2023-02-12T06:52:45;95711.72;;;3.23;59.92
35892;BME280;21993;42.672;23.296;2023-02-12T06:55:10;95709.13;;;3.23;59.84
35892;BME280;21993;42.672;23.296;2023-02-12T06:57:35;95710.00;;;3.03;60.31
35892;BME280;21993;42.672;23.296;2023-02-12T07:00:01;95704.59;;;3.07;60.13
35892;BME280;21993;42.672;23.296;2023-02-12T07:02:26;95711.47;;;3.29;59.90
35892;BME280;21993;42.672;23.296;2023-02-12T07:04:52;95707.97;;;3.49;59.04
35892;BME280;21993;42.672;23.296;2023-02-12T07:07:17;95711.81;;;3.40;58.85
35892;BME280;21993;42.672;23.296;2023-02-12T07:09:42;95706.72;;;3.57;58.51
35892;BME280;21993;42.672;23.296;2023-02-12T07:12:08;95711.16;;;3.55;58.10
35892;BME280;21993;42.672;23.296;2023-02-12T07:14:33;95715.09;;;3.64;58.12
35892;BME280;21993;42.672;23.296;2023-02-12T07:16:58;95709.41;;;3.75;57.88
35892;BME280;21993;42.672;23.296;2023-02-12T07:19:28;95704.91;;;3.78;57.30
35892;BME280;21993;42.672;23.296;2023-02-12T07:21:53;95703.66;;;3.87;57.52
35892;BME280;21993;42.672;23.296;2023-02-12T07:24:19;95710.47;;;3.89;57.66
35892;BME280;21993;42.672;23.296;2023-02-12T07:26:44;95713.91;;;3.90;56.85
35892;BME280;21993;42.672;23.296;2023-02-12T07:29:10;95713.81;;;3.91;56.76
35892;BME280;21993;42.672;23.296;2023-02-12T07:31:35;95713.13;;;3.88;56.89
35892;BME280;21993;42.672;23.296;2023-02-12T07:34:01;95705.88;;;3.94;56.61
35892;BME280;21993;42.672;23.296;2023-02-12T07:36:28;95717.97;;;3.95;57.47
35892;BME280;21993;42.672;23.296;2023-02-12T07:38:55;95714.72;;;4.09;57.07
35892;BME280;21993;42.672;23.296;2023-02-12T07:41:24;95721.81;;;4.06;57.63
35892;BME280;21993;42.672;23.296;2023-02-12T07:43:54;95725.69;;;3.97;56.82
35892;BME280;21993;42.672;23.296;2023-02-12T07:46:23;95728.38;;;3.95;58.23
35892;BME280;21993;42.672;23.296;2023-02-12T07:48:54;95730.59;;;3.84;57.79
35892;BME280;21993;42.672;23.296;2023-02-12T07:51:20;95734.09;;;4.02;57.86
35892;BME280;21993;42.672;23.296;2023-02-12T07:53:46;95738.09;;;4.09;57.75
35892;BME280;21993;42.672;23.296;2023-02-12T07:56:23;95738.94;;;4.10;57.43
35892;BME280;21993;42.672;23.296;2023-02-12T07:58:51;95741.19;;;3.99;57.63
35892;BME280;21993;42.672;23.296;2023-02-12T08:04:15;95738.88;;;3.92;58.46
35892;BME280;21993;42.672;23.296;2023-02-12T08:06:46;95742.13;;;3.79;58.79
35892;BME280;21993;42.672;23.296;2023-02-12T08:09:15;95735.09;;;3.81;59.27
35892;BME280;21993;42.672;23.296;2023-02-12T08:11:41;95741.56;;;3.91;58.80
35892;BME280;21993;42.672;23.296;2023-02-12T08:14:07;95734.88;;;3.85;58.32
35892;BME280;21993;42.672;23.296;2023-02-12T08:16:36;95734.34;;;3.79;59.55
35892;BME280;21993;42.672;23.296;2023-02-12T08:19:02;95728.84;;;3.85;59.18
35892;BME280;21993;42.672;23.296;2023-02-12T08:21:28;95738.13;;;3.90;59.35
35892;BME280;21993;42.672;23.296;2023-02-12T08:23:54;95733.59;;;3.94;60.04
35892;BME280;21993;42.672;23.296;2023-02-12T08:26:24;95753.78;;;3.89;59.01
35892;BME280;21993;42.672;23.296;2023-02-12T08:29:01;95752.56;;;3.77;59.80
35892;BME280;21993;42.672;23.296;2023-02-12T08:31:32;95755.22;;;3.76;59.89
35892;BME280;21993;42.672;23.296;2023-02-12T08:33:59;95758.72;;;3.75;60.16
35892;BME280;21993;42.672;23.296;2023-02-12T08:36:27;95764.78;;;3.75;60.37
35892;BME280;21993;42.672;23.296;2023-02-12T08:38:56;95766.25;;;3.62;60.42
35892;BME280;21993;42.672;23.296;2023-02-12T08:41:24;95780.41;;;3.74;60.45
35892;BME280;21993;42.672;23.296;2023-02-12T08:43:52;95775.59;;;3.85;59.55
35892;BME280;21993;42.672;23.296;2023-02-12T08:46:24;95777.22;;;3.87;60.26
35892;BME280;21993;42.672;23.296;2023-02-12T08:48:57;95774.66;;;3.86;59.41
35892;BME280;21993;42.672;23.296;2023-02-12T08:51:25;95783.78;;;3.76;60.32
35892;BME280;21993;42.672;23.296;2023-02-12T08:53:54;95776.25;;;3.70;59.79
35892;BME280;21993;42.672;23.296;2023-02-12T08:56:20;95780.94;;;3.61;60.82
35892;BME280;21993;42.672;23.296;2023-02-12T08:58:46;95775.91;;;3.77;60.87
35892;BME280;21993;42.672;23.296;2023-02-12T09:01:17;95780.50;;;3.91;59.80
35892;BME280;21993;42.672;23.296;2023-02-12T09:03:44;95782.69;;;4.00;60.41
35892;BME280;21993;42.672;23.296;2023-02-12T09:06:10;95791.25;;;4.02;60.79
35892;BME280;21993;42.672;23.296;2023-02-12T09:08:36;95785.78;;;4.08;60.82
35892;BME280;21993;42.672;23.296;2023-02-12T09:11:06;95801.38;;;4.08;60.50
35892;BME280;21993;42.672;23.296;2023-02-12T09:13:32;95797.66;;;4.14;60.58
35892;BME280;21993;42.672;23.296;2023-02-12T09:16:00;95803.13;;;4.08;60.36
35892;BME280;21993;42.672;23.296;2023-02-12T09:18:26;95803.72;;;3.94;61.05
35892;BME280;21993;42.672;23.296;2023-02-12T09:20:52;95801.63;;;4.02;60.84
35892;BME280;21993;42.672;23.296;2023-02-12T09:23:17;95810.06;;;3.88;61.44
35892;BME280;21993;42.672;23.296;2023-02-12T09:25:44;95800.59;;;3.87;61.66
35892;BME280;21993;42.672;23.296;2023-02-12T09:28:11;95804.03;;;3.88;60.86
35892;BME280;21993;42.672;23.296;2023-02-12T09:30:37;95816.28;;;3.84;61.85
35892;BME280;21993;42.672;23.296;2023-02-12T09:33:04;95798.69;;;3.91;61.82
35892;BME280;21993;42.672;23.296;2023-02-12T09:35:29;95808.16;;;3.92;61.50
35892;BME280;21993;42.672;23.296;2023-02-12T09:37:55;95809.34;;;3.85;62.20
35892;BME280;21993;42.672;23.296;2023-02-12T09:43:07;95813.28;;;3.93;61.31
35892;BME280;21993;42.672;23.296;2023-02-12T09:45:47;95800.03;;;4.00;60.67
35892;BME280;21993;42.672;23.296;2023-02-12T09:48:42;95811.25;;;4.00;60.43
35892;BME280;21993;42.672;23.296;2023-02-12T09:51:11;95815.97;;;3.92;61.58
35892;BME280;21993;42.672;23.296;2023-02-12T09:53:40;95814.94;;;3.96;61.29
35892;BME280;21993;42.672;23.296;2023-02-12T09:56:16;95828.84;;;4.14;60.16
35892;BME280;21993;42.672;23.296;2023-02-12T09:58:52;95828.59;;;4.00;60.22
35892;BME280;21993;42.672;23.296;2023-02-12T10:01:20;95828.03;;;4.12;61.05
35892;BME280;21993;42.672;23.296;2023-02-12T10:03:48;95816.13;;;4.27;59.96
35892;BME280;21993;42.672;23.296;2023-02-12T10:27:54;95810.91;;;4.45;59.68
35892;BME280;21993;42.672;23.296;2023-02-12T10:33:15;95810.31;;;4.76;59.85
35892;BME280;21993;42.672;23.296;2023-02-12T10:35:46;95820.59;;;4.79;59.42
35892;BME280;21993;42.672;23.296;2023-02-12T10:38:18;95815.22;;;4.83;59.21
35892;BME280;21993;42.672;23.296;2023-02-12T10:40:45;95821.94;;;4.87;58.56
35892;BME280;21993;42.672;23.296;2023-02-12T10:43:11;95815.50;;;4.76;58.78
35892;BME280;21993;42.672;23.296;2023-02-12T10:45:39;95828.16;;;4.84;59.42
35892;BME280;21993;42.672;23.296;2023-02-12T10:48:09;95819.97;;;4.92;57.97
35892;BME280;21993;42.672;23.296;2023-02-12T10:50:56;95818.69;;;5.00;58.56
35892;BME280;21993;42.672;23.296;2023-02-12T10:53:30;95812.47;;;4.86;58.68
35892;BME280;21993;42.672;23.296;2023-02-12T10:58:49;95825.66;;;5.00;59.10
35892;BME280;21993;42.672;23.296;2023-02-12T11:03:57;95828.41;;;4.97;58.14
35892;BME280;21993;42.672;23.296;2023-02-12T11:06:30;95826.56;;;4.99;58.18
35892;BME280;21993;42.672;23.296;2023-02-12T11:08:57;95827.81;;;5.09;58.46
35892;BME280;21993;42.672;23.296;2023-02-12T11:11:29;95827.97;;;5.23;58.69
35892;BME280;21993;42.672;23.296;2023-02-12T11:14:02;95824.81;;;5.17;58.77
35892;BME280;21993;42.672;23.296;2023-02-12T11:16:36;95827.53;;;5.32;58.03
35892;BME280;21993;42.672;23.296;2023-02-12T11:19:06;95822.00;;;5.39;57.45
35892;BME280;21993;42.672;23.296;2023-02-12T11:21:33;95811.19;;;5.46;57.87
35892;BME280;21993;42.672;23.296;2023-02-12T11:24:21;95823.53;;;5.43;58.24
35892;BME280;21993;42.672;23.296;2023-02-12T11:26:47;95817.41;;;5.44;57.98
35892;BME280;21993;42.672;23.296;2023-02-12T11:29:21;95816.47;;;5.45;57.51
35892;BME280;21993;42.672;23.296;2023-02-12T11:32:02;95818.94;;;5.48;58.15
35892;BME280;21993;42.672;23.296;2023-02-12T11:34:28;95818.63;;;5.54;57.83
35892;BME280;21993;42.672;23.296;2023-02-12T11:36:55;95814.03;;;5.59;57.47
35892;BME280;21993;42.672;23.296;2023-02-12T11:39:35;95822.69;;;5.59;57.45
35892;BME280;21993;42.672;23.296;2023-02-12T11:42:06;95818.63;;;5.54;57.78
35892;BME280;21993;42.672;23.296;2023-02-12T11:44:42;95815.69;;;5.77;56.73
35892;BME280;21993;42.672;23.296;2023-02-12T11:47:12;95809.09;;;5.70;56.73
35892;BME280;21993;42.672;23.296;2023-02-12T11:49:48;95812.22;;;5.77;56.44
35892;BME280;21993;42.672;23.296;2023-02-12T11:52:20;95811.63;;;5.89;56.63
35892;BME280;21993;42.672;23.296;2023-02-12T11:54:49;95808.09;;;5.90;56.41
35892;BME280;21993;42.672;23.296;2023-02-12T12:00:13;95803.25;;;6.00;56.31
35892;BME280;21993;42.672;23.296;2023-02-12T12:02:44;95812.94;;;6.13;55.72
35892;BME280;21993;42.672;23.296;2023-02-12T12:05:15;95804.72;;;6.21;55.39
35892;BME280;21993;42.672;23.296;2023-02-12T12:07:50;95808.34;;;6.34;55.07
35892;BME280;21993;42.672;23.296;2023-02-12T12:10:37;95812.41;;;6.40;55.18
35892;BME280;21993;42.672;23.296;2023-02-12T12:13:12;95819.59;;;6.19;54.98
35892;BME280;21993;42.672;23.296;2023-02-12T12:15:43;95823.34;;;6.31;54.88
35892;BME280;21993;42.672;23.296;2023-02-12T12:18:51;95812.97;;;6.29;54.78
35892;BME280;21993;42.672;23.296;2023-02-12T12:27:40;95819.09;;;6.28;54.77
35892;BME280;21993;42.672;23.296;2023-02-12T12:30:54;95826.69;;;6.33;54.48
35892;BME280;21993;42.672;23.296;2023-02-12T12:33:33;95817.50;;;6.26;54.51
35892;BME280;21993;42.672;23.296;2023-02-12T12:36:35;95818.38;;;6.42;54.30
35892;BME280;21993;42.672;23.296;2023-02-12T12:39:34;95818.78;;;6.50;54.28
35892;BME280;21993;42.672;23.296;2023-02-12T12:44:57;95826.78;;;6.31;54.95
35892;BME280;21993;42.672;23.296;2023-02-12T12:47:47;95828.63;;;6.45;54.36
35892;BME280;21993;42.672;23.296;2023-02-12T12:56:48;95842.00;;;6.55;54.57
35892;BME280;21993;42.672;23.296;2023-02-12T13:26:15;95859.69;;;6.65;54.35
35892;BME280;21993;42.672;23.296;2023-02-12T13:28:47;95863.28;;;6.47;54.67
35892;BME280;21993;42.672;23.296;2023-02-12T13:31:19;95862.41;;;6.15;55.57
35892;BME280;21993;42.672;23.296;2023-02-12T13:34:12;95864.22;;;6.13;55.72
35892;BME280;21993;42.672;23.296;2023-02-12T13:36:40;95853.31;;;6.22;56.05
35892;BME280;21993;42.672;23.296;2023-02-12T13:39:32;95852.50;;;6.37;55.46
35892;BME280;21993;42.672;23.296;2023-02-12T13:45:26;95863.13;;;6.50;55.15
35892;BME280;21993;42.672;23.296;2023-02-12T13:53:22;95881.63;;;6.45;55.41
35892;BME280;21993;42.672;23.296;2023-02-12T13:56:10;95869.38;;;6.47;55.36
35892;BME280;21993;42.672;23.296;2023-02-12T13:58:51;95875.31;;;6.34;55.27
35892;BME280;21993;42.672;23.296;2023-02-12T14:01:43;95883.44;;;6.28;56.08
35892;BME280;21993;42.672;23.296;2023-02-12T14:14:51;95903.38;;;6.29;55.84
35892;BME280;21993;42.672;23.296;2023-02-12T14:20:25;95905.44;;;6.39;55.66
35892;BME280;21993;42.672;23.296;2023-02-12T14:27:48;95906.78;;;6.46;55.29
35892;BME280;21993;42.672;23.296;2023-02-12T14:30:23;95919.50;;;6.53;54.92
35892;BME280;21993;42.672;23.296;2023-02-12T14:37:50;95933.25;;;6.39;55.30
35892;BME280;21993;42.672;23.296;2023-02-12T14:45:49;95934.78;;;6.43;55.36
35892;BME280;21993;42.672;23.296;2023-02-12T14:49:15;95941.94;;;6.39;55.16
35892;BME280;21993;42.672;23.296;2023-02-12T14:51:43;95952.81;;;6.47;55.18
35892;BME280;21993;42.672;23.296;2023-02-12T14:54:20;95947.00;;;6.42;54.98
35892;BME280;21993;42.672;23.296;2023-02-12T14:56:50;95946.69;;;6.48;55.12
35892;BME280;21993;42.672;23.296;2023-02-12T14:59:21;95942.72;;;6.41;55.21
35892;BME280;21993;42.672;23.296;2023-02-12T15:01:49;95950.53;;;6.41;55.26
35892;BME280;21993;42.672;23.296;2023-02-12T15:04:24;95954.84;;;6.25;55.32
35892;BME280;21993;42.672;23.296;2023-02-12T15:07:13;95962.94;;;6.36;55.85
35892;BME280;21993;42.672;23.296;2023-02-12T15:09:56;95961.28;;;6.35;55.20
35892;BME280;21993;42.672;23.296;2023-02-12T15:12:38;95971.47;;;6.40;56.22
35892;BME280;21993;42.672;23.296;2023-02-12T15:15:14;95979.97;;;6.43;55.51
35892;BME280;21993;42.672;23.296;2023-02-12T15:17:53;95981.50;;;6.47;55.61
35892;BME280;21993;42.672;23.296;2023-02-12T15:20:22;95990.31;;;6.45;55.81
35892;BME280;21993;42.672;23.296;2023-02-12T15:22:48;95999.00;;;6.45;55.91
35892;BME280;21993;42.672;23.296;2023-02-12T15:25:27;96007.81;;;6.43;56.09
35892;BME280;21993;42.672;23.296;2023-02-12T15:27:55;96003.91;;;6.34;56.01
35892;BME280;21993;42.672;23.296;2023-02-12T15:30:25;96014.50;;;6.31;56.34
35892;BME280;21993;42.672;23.296;2023-02-12T15:32:51;96026.75;;;6.29;56.91
35892;BME280;21993;42.672;23.296;2023-02-12T15:35:22;96030.91;;;6.33;56.82
35892;BME280;21993;42.672;23.296;2023-02-12T15:37:49;96024.25;;;6.10;56.99
35892;BME280;21993;42.672;23.296;2023-02-12T15:40:15;96029.69;;;6.23;56.86
35892;BME280;21993;42.672;23.296;2023-02-12T15:42:51;96028.91;;;6.21;57.25
35892;BME280;21993;42.672;23.296;2023-02-12T15:45:20;96030.91;;;6.16;57.41
35892;BME280;21993;42.672;23.296;2023-02-12T15:48:17;96033.75;;;6.11;57.53
35892;BME280;21993;42.672;23.296;2023-02-12T15:53:15;96033.06;;;6.25;56.90